sensor_id;sensor_type;location;lat;lon;timestamp;P1;durP1;ratioP1;P2;durP2;ratioP2
17482;SDS011;8858;52.308;20.994;2022-09-09T00:01:49;8.37;;;5.20;;
17482;SDS011;8858;52.308;20.994;2022-09-09T00:04:28;10.07;;;5.87;;
17482;SDS011;8858;52.308;20.994;2022-09-09T00:07:00;7.80;;;5.40;;
17482;SDS011;8858;52.308;20.994;2022-09-09T00:09:35;9.23;;;5.77;;
17482;SDS011;8858;52.308;20.994;2022-09-09T00:12:10;7.00;;;5.00;;
17482;SDS011;8858;52.308;20.994;2022-09-09T00:14:42;8.07;;;6.00;;
17482;SDS011;8858;52.308;20.994;2022-09-09T00:17:24;9.00;;;5.03;;
17482;SDS011;8858;52.308;20.994;2022-09-09T00:20:01;7.33;;;5.63;;
17482;SDS011;8858;52.308;20.994;2022-09-09T00:22:39;10.27;;;6.23;;
17482;SDS011;8858;52.308;20.994;2022-09-09T00:25:14;7.70;;;5.83;;
17482;SDS011;8858;52.308;20.994;2022-09-09T00:27:51;7.70;;;5.90;;
17482;SDS011;8858;52.308;20.994;2022-09-09T00:30:22;6.47;;;5.50;;
17482;SDS011;8858;52.308;20.994;2022-09-09T00:32:59;8.13;;;5.53;;
17482;SDS011;8858;52.308;20.994;2022-09-09T00:35:32;8.63;;;5.47;;
17482;SDS011;8858;52.308;20.994;2022-09-09T00:38:09;8.50;;;5.70;;
17482;SDS011;8858;52.308;20.994;2022-09-09T00:40:41;8.30;;;6.07;;
17482;SDS011;8858;52.308;20.994;2022-09-09T00:43:22;7.33;;;5.60;;
17482;SDS011;8858;52.308;20.994;2022-09-09T00:46:05;9.90;;;5.57;;
17482;SDS011;8858;52.308;20.994;2022-09-09T00:48:49;9.30;;;5.80;;
17482;SDS011;8858;52.308;20.994;2022-09-09T00:51:25;7.87;;;5.27;;
17482;SDS011;8858;52.308;20.994;2022-09-09T00:54:09;10.47;;;5.67;;
17482;SDS011;8858;52.308;20.994;2022-09-09T00:57:02;9.83;;;5.90;;
17482;SDS011;8858;52.308;20.994;2022-09-09T00:59:42;8.50;;;5.87;;
17482;SDS011;8858;52.308;20.994;2022-09-09T01:02:21;7.83;;;5.90;;
17482;SDS011;8858;52.308;20.994;2022-09-09T01:04:59;8.57;;;5.80;;
17482;SDS011;8858;52.308;20.994;2022-09-09T01:07:33;8.27;;;5.60;;
17482;SDS011;8858;52.308;20.994;2022-09-09T01:10:03;9.83;;;5.80;;
17482;SDS011;8858;52.308;20.994;2022-09-09T01:12:39;9.30;;;6.00;;
17482;SDS011;8858;52.308;20.994;2022-09-09T01:15:16;8.30;;;5.70;;
17482;SDS011;8858;52.308;20.994;2022-09-09T01:17:53;7.70;;;5.67;;
17482;SDS011;8858;52.308;20.994;2022-09-09T01:20:37;9.83;;;6.23;;
17482;SDS011;8858;52.308;20.994;2022-09-09T01:23:23;8.70;;;6.07;;
17482;SDS011;8858;52.308;20.994;2022-09-09T01:26:33;8.57;;;5.53;;
17482;SDS011;8858;52.308;20.994;2022-09-09T01:29:10;10.87;;;6.20;;
17482;SDS011;8858;52.308;20.994;2022-09-09T01:31:51;11.07;;;6.20;;
17482;SDS011;8858;52.308;20.994;2022-09-09T01:34:23;8.43;;;6.17;;
17482;SDS011;8858;52.308;20.994;2022-09-09T01:36:53;8.50;;;5.70;;
17482;SDS011;8858;52.308;20.994;2022-09-09T01:39:28;9.37;;;6.40;;
17482;SDS011;8858;52.308;20.994;2022-09-09T01:42:02;9.67;;;6.07;;
17482;SDS011;8858;52.308;20.994;2022-09-09T01:44:32;8.40;;;6.03;;
17482;SDS011;8858;52.308;20.994;2022-09-09T01:47:02;10.50;;;6.90;;
17482;SDS011;8858;52.308;20.994;2022-09-09T01:49:32;7.70;;;6.03;;
17482;SDS011;8858;52.308;20.994;2022-09-09T01:52:08;9.77;;;6.77;;
17482;SDS011;8858;52.308;20.994;2022-09-09T01:54:37;11.13;;;6.80;;
17482;SDS011;8858;52.308;20.994;2022-09-09T01:57:15;9.50;;;6.80;;
17482;SDS011;8858;52.308;20.994;2022-09-09T01:59:52;7.57;;;6.43;;
17482;SDS011;8858;52.308;20.994;2022-09-09T02:02:41;8.93;;;6.47;;
17482;SDS011;8858;52.308;20.994;2022-09-09T02:05:26;8.87;;;6.80;;
17482;SDS011;8858;52.308;20.994;2022-09-09T02:08:17;9.37;;;7.10;;
17482;SDS011;8858;52.308;20.994;2022-09-09T02:10:56;8.47;;;6.33;;
17482;SDS011;8858;52.308;20.994;2022-09-09T02:13:42;6.87;;;6.13;;
17482;SDS011;8858;52.308;20.994;2022-09-09T02:16:15;8.30;;;6.47;;
17482;SDS011;8858;52.308;20.994;2022-09-09T02:18:51;9.07;;;7.00;;
17482;SDS011;8858;52.308;20.994;2022-09-09T02:21:39;6.80;;;6.10;;
17482;SDS011;8858;52.308;20.994;2022-09-09T02:24:14;8.10;;;6.60;;
17482;SDS011;8858;52.308;20.994;2022-09-09T02:26:52;10.13;;;6.97;;
17482;SDS011;8858;52.308;20.994;2022-09-09T02:29:25;8.53;;;6.90;;
17482;SDS011;8858;52.308;20.994;2022-09-09T02:31:57;10.03;;;6.70;;
17482;SDS011;8858;52.308;20.994;2022-09-09T02:34:36;9.70;;;6.97;;
17482;SDS011;8858;52.308;20.994;2022-09-09T02:37:09;8.60;;;6.60;;
17482;SDS011;8858;52.308;20.994;2022-09-09T02:39:44;8.23;;;7.07;;
17482;SDS011;8858;52.308;20.994;2022-09-09T02:42:19;10.77;;;7.33;;
17482;SDS011;8858;52.308;20.994;2022-09-09T02:44:50;11.90;;;7.17;;
17482;SDS011;8858;52.308;20.994;2022-09-09T02:47:29;9.60;;;7.60;;
17482;SDS011;8858;52.308;20.994;2022-09-09T02:50:12;9.23;;;7.63;;
17482;SDS011;8858;52.308;20.994;2022-09-09T02:52:50;10.87;;;7.77;;
17482;SDS011;8858;52.308;20.994;2022-09-09T02:55:30;10.63;;;7.27;;
17482;SDS011;8858;52.308;20.994;2022-09-09T02:58:11;9.83;;;7.90;;
17482;SDS011;8858;52.308;20.994;2022-09-09T03:00:52;9.43;;;7.27;;
17482;SDS011;8858;52.308;20.994;2022-09-09T03:03:21;8.50;;;7.53;;
17482;SDS011;8858;52.308;20.994;2022-09-09T03:05:51;8.90;;;7.60;;
17482;SDS011;8858;52.308;20.994;2022-09-09T03:08:22;8.57;;;7.67;;
17482;SDS011;8858;52.308;20.994;2022-09-09T03:10:57;10.37;;;7.80;;
17482;SDS011;8858;52.308;20.994;2022-09-09T03:13:34;9.10;;;7.60;;
17482;SDS011;8858;52.308;20.994;2022-09-09T03:16:06;9.17;;;7.13;;
17482;SDS011;8858;52.308;20.994;2022-09-09T03:18:40;9.57;;;7.43;;
17482;SDS011;8858;52.308;20.994;2022-09-09T03:21:09;9.77;;;7.83;;
17482;SDS011;8858;52.308;20.994;2022-09-09T03:23:38;9.50;;;7.37;;
17482;SDS011;8858;52.308;20.994;2022-09-09T03:26:07;9.63;;;7.13;;
17482;SDS011;8858;52.308;20.994;2022-09-09T03:28:41;9.17;;;7.77;;
17482;SDS011;8858;52.308;20.994;2022-09-09T03:31:15;10.67;;;7.67;;
17482;SDS011;8858;52.308;20.994;2022-09-09T03:33:44;9.53;;;7.20;;
17482;SDS011;8858;52.308;20.994;2022-09-09T03:36:19;9.90;;;7.23;;
17482;SDS011;8858;52.308;20.994;2022-09-09T03:38:47;8.27;;;6.80;;
17482;SDS011;8858;52.308;20.994;2022-09-09T03:41:17;7.83;;;6.67;;
17482;SDS011;8858;52.308;20.994;2022-09-09T03:43:46;8.10;;;6.87;;
17482;SDS011;8858;52.308;20.994;2022-09-09T03:46:15;10.37;;;6.90;;
17482;SDS011;8858;52.308;20.994;2022-09-09T03:48:45;8.30;;;6.70;;
17482;SDS011;8858;52.308;20.994;2022-09-09T03:51:13;8.20;;;6.87;;
17482;SDS011;8858;52.308;20.994;2022-09-09T03:53:43;9.13;;;6.27;;
17482;SDS011;8858;52.308;20.994;2022-09-09T03:56:12;8.57;;;7.20;;
17482;SDS011;8858;52.308;20.994;2022-09-09T03:58:41;14.37;;;12.70;;
17482;SDS011;8858;52.308;20.994;2022-09-09T04:01:13;8.13;;;7.27;;
17482;SDS011;8858;52.308;20.994;2022-09-09T04:03:45;8.43;;;6.67;;
17482;SDS011;8858;52.308;20.994;2022-09-09T04:06:14;8.93;;;7.00;;
17482;SDS011;8858;52.308;20.994;2022-09-09T04:08:45;7.37;;;6.17;;
17482;SDS011;8858;52.308;20.994;2022-09-09T04:11:18;7.97;;;6.83;;
17482;SDS011;8858;52.308;20.994;2022-09-09T04:13:49;7.30;;;6.60;;
17482;SDS011;8858;52.308;20.994;2022-09-09T04:16:19;6.90;;;6.07;;
17482;SDS011;8858;52.308;20.994;2022-09-09T04:18:50;8.47;;;6.80;;
17482;SDS011;8858;52.308;20.994;2022-09-09T04:21:19;7.13;;;6.07;;
17482;SDS011;8858;52.308;20.994;2022-09-09T04:23:47;8.93;;;6.60;;
17482;SDS011;8858;52.308;20.994;2022-09-09T04:26:18;8.20;;;6.47;;
17482;SDS011;8858;52.308;20.994;2022-09-09T04:28:47;7.53;;;5.90;;
17482;SDS011;8858;52.308;20.994;2022-09-09T04:31:20;16.53;;;14.43;;
17482;SDS011;8858;52.308;20.994;2022-09-09T04:33:53;12.03;;;9.67;;
17482;SDS011;8858;52.308;20.994;2022-09-09T04:36:25;10.00;;;7.10;;
17482;SDS011;8858;52.308;20.994;2022-09-09T04:38:58;6.57;;;5.97;;
17482;SDS011;8858;52.308;20.994;2022-09-09T04:41:27;6.90;;;5.53;;
17482;SDS011;8858;52.308;20.994;2022-09-09T04:43:58;6.23;;;5.63;;
17482;SDS011;8858;52.308;20.994;2022-09-09T04:46:32;8.40;;;5.53;;
17482;SDS011;8858;52.308;20.994;2022-09-09T04:49:01;5.77;;;5.17;;
17482;SDS011;8858;52.308;20.994;2022-09-09T04:51:31;6.37;;;5.27;;
17482;SDS011;8858;52.308;20.994;2022-09-09T04:54:01;5.77;;;5.20;;
17482;SDS011;8858;52.308;20.994;2022-09-09T04:56:30;5.70;;;5.10;;
17482;SDS011;8858;52.308;20.994;2022-09-09T04:59:00;7.80;;;4.80;;
17482;SDS011;8858;52.308;20.994;2022-09-09T05:01:50;5.23;;;4.60;;
17482;SDS011;8858;52.308;20.994;2022-09-09T05:04:21;5.40;;;4.67;;
17482;SDS011;8858;52.308;20.994;2022-09-09T05:06:50;6.87;;;5.43;;
17482;SDS011;8858;52.308;20.994;2022-09-09T05:09:19;4.97;;;4.57;;
17482;SDS011;8858;52.308;20.994;2022-09-09T05:11:47;5.77;;;5.17;;
17482;SDS011;8858;52.308;20.994;2022-09-09T05:14:23;6.90;;;5.27;;
17482;SDS011;8858;52.308;20.994;2022-09-09T05:16:52;6.03;;;5.00;;
17482;SDS011;8858;52.308;20.994;2022-09-09T05:19:22;5.17;;;4.77;;
17482;SDS011;8858;52.308;20.994;2022-09-09T05:21:52;6.00;;;4.70;;
17482;SDS011;8858;52.308;20.994;2022-09-09T05:24:26;7.63;;;5.00;;
17482;SDS011;8858;52.308;20.994;2022-09-09T05:26:57;5.47;;;4.70;;
17482;SDS011;8858;52.308;20.994;2022-09-09T05:29:27;5.20;;;4.50;;
17482;SDS011;8858;52.308;20.994;2022-09-09T05:31:57;9.13;;;5.70;;
17482;SDS011;8858;52.308;20.994;2022-09-09T05:34:25;13.20;;;5.30;;
17482;SDS011;8858;52.308;20.994;2022-09-09T05:36:53;10.67;;;5.23;;
17482;SDS011;8858;52.308;20.994;2022-09-09T05:39:23;5.93;;;4.60;;
17482;SDS011;8858;52.308;20.994;2022-09-09T05:41:52;5.57;;;4.97;;
17482;SDS011;8858;52.308;20.994;2022-09-09T05:44:21;6.10;;;4.40;;
17482;SDS011;8858;52.308;20.994;2022-09-09T05:46:54;5.57;;;4.97;;
17482;SDS011;8858;52.308;20.994;2022-09-09T05:49:25;4.83;;;4.40;;
17482;SDS011;8858;52.308;20.994;2022-09-09T05:51:54;6.50;;;4.47;;
17482;SDS011;8858;52.308;20.994;2022-09-09T05:54:23;4.90;;;3.93;;
17482;SDS011;8858;52.308;20.994;2022-09-09T05:56:53;4.43;;;4.03;;
17482;SDS011;8858;52.308;20.994;2022-09-09T05:59:23;5.03;;;4.23;;
17482;SDS011;8858;52.308;20.994;2022-09-09T06:01:54;6.70;;;4.00;;
17482;SDS011;8858;52.308;20.994;2022-09-09T06:04:34;6.70;;;4.47;;
17482;SDS011;8858;52.308;20.994;2022-09-09T06:07:03;4.50;;;4.10;;
17482;SDS011;8858;52.308;20.994;2022-09-09T06:09:36;4.47;;;4.07;;
17482;SDS011;8858;52.308;20.994;2022-09-09T06:12:07;4.47;;;4.07;;
17482;SDS011;8858;52.308;20.994;2022-09-09T06:14:37;6.30;;;4.43;;
17482;SDS011;8858;52.308;20.994;2022-09-09T06:17:12;4.23;;;3.60;;
17482;SDS011;8858;52.308;20.994;2022-09-09T06:19:42;6.63;;;4.00;;
17482;SDS011;8858;52.308;20.994;2022-09-09T06:22:11;4.80;;;4.40;;
17482;SDS011;8858;52.308;20.994;2022-09-09T06:24:44;7.40;;;4.30;;
17482;SDS011;8858;52.308;20.994;2022-09-09T06:27:12;6.77;;;4.13;;
17482;SDS011;8858;52.308;20.994;2022-09-09T06:29:41;6.83;;;4.17;;
17482;SDS011;8858;52.308;20.994;2022-09-09T06:32:10;5.30;;;3.90;;
17482;SDS011;8858;52.308;20.994;2022-09-09T06:34:39;4.97;;;4.03;;
17482;SDS011;8858;52.308;20.994;2022-09-09T06:37:10;4.87;;;4.20;;
17482;SDS011;8858;52.308;20.994;2022-09-09T06:39:45;6.57;;;4.30;;
17482;SDS011;8858;52.308;20.994;2022-09-09T06:42:15;5.13;;;3.67;;
17482;SDS011;8858;52.308;20.994;2022-09-09T06:44:47;5.53;;;4.30;;
17482;SDS011;8858;52.308;20.994;2022-09-09T06:47:22;7.73;;;4.33;;
17482;SDS011;8858;52.308;20.994;2022-09-09T06:49:57;6.93;;;4.80;;
17482;SDS011;8858;52.308;20.994;2022-09-09T06:52:27;6.63;;;4.87;;
17482;SDS011;8858;52.308;20.994;2022-09-09T06:54:56;5.10;;;4.20;;
17482;SDS011;8858;52.308;20.994;2022-09-09T06:57:25;7.03;;;4.90;;
17482;SDS011;8858;52.308;20.994;2022-09-09T07:00:15;5.77;;;4.80;;
17482;SDS011;8858;52.308;20.994;2022-09-09T07:02:44;6.80;;;4.50;;
17482;SDS011;8858;52.308;20.994;2022-09-09T07:05:13;9.17;;;4.83;;
17482;SDS011;8858;52.308;20.994;2022-09-09T07:07:45;5.20;;;4.70;;
17482;SDS011;8858;52.308;20.994;2022-09-09T07:10:18;5.57;;;4.90;;
17482;SDS011;8858;52.308;20.994;2022-09-09T07:12:49;8.63;;;4.87;;
17482;SDS011;8858;52.308;20.994;2022-09-09T07:15:24;10.07;;;4.73;;
17482;SDS011;8858;52.308;20.994;2022-09-09T07:17:54;6.67;;;5.33;;
17482;SDS011;8858;52.308;20.994;2022-09-09T07:20:22;8.00;;;5.30;;
17482;SDS011;8858;52.308;20.994;2022-09-09T07:22:55;6.20;;;5.60;;
17482;SDS011;8858;52.308;20.994;2022-09-09T07:25:25;9.03;;;5.07;;
17482;SDS011;8858;52.308;20.994;2022-09-09T07:27:56;6.03;;;5.03;;
17482;SDS011;8858;52.308;20.994;2022-09-09T07:30:25;6.80;;;5.70;;
17482;SDS011;8858;52.308;20.994;2022-09-09T07:32:56;8.07;;;5.50;;
17482;SDS011;8858;52.308;20.994;2022-09-09T07:35:25;5.30;;;4.90;;
17482;SDS011;8858;52.308;20.994;2022-09-09T07:37:55;8.03;;;5.70;;
17482;SDS011;8858;52.308;20.994;2022-09-09T07:40:24;9.63;;;5.37;;
17482;SDS011;8858;52.308;20.994;2022-09-09T07:42:52;6.67;;;5.47;;
17482;SDS011;8858;52.308;20.994;2022-09-09T07:45:21;8.60;;;5.70;;
17482;SDS011;8858;52.308;20.994;2022-09-09T07:47:54;6.73;;;6.13;;
17482;SDS011;8858;52.308;20.994;2022-09-09T07:50:24;7.50;;;5.90;;
17482;SDS011;8858;52.308;20.994;2022-09-09T07:52:53;12.70;;;6.30;;
17482;SDS011;8858;52.308;20.994;2022-09-09T07:55:25;10.57;;;6.70;;
17482;SDS011;8858;52.308;20.994;2022-09-09T07:57:57;8.67;;;6.93;;
17482;SDS011;8858;52.308;20.994;2022-09-09T08:00:26;7.07;;;6.40;;
17482;SDS011;8858;52.308;20.994;2022-09-09T08:02:56;9.03;;;6.60;;
17482;SDS011;8858;52.308;20.994;2022-09-09T08:05:29;8.63;;;6.40;;
17482;SDS011;8858;52.308;20.994;2022-09-09T08:07:58;7.60;;;6.80;;
17482;SDS011;8858;52.308;20.994;2022-09-09T08:10:28;7.37;;;6.67;;
17482;SDS011;8858;52.308;20.994;2022-09-09T08:12:58;7.50;;;6.63;;
17482;SDS011;8858;52.308;20.994;2022-09-09T08:15:44;8.00;;;7.00;;
17482;SDS011;8858;52.308;20.994;2022-09-09T08:18:14;7.87;;;7.07;;
17482;SDS011;8858;52.308;20.994;2022-09-09T08:20:43;9.80;;;7.33;;
17482;SDS011;8858;52.308;20.994;2022-09-09T08:23:12;9.70;;;6.97;;
17482;SDS011;8858;52.308;20.994;2022-09-09T08:25:42;9.50;;;7.57;;
17482;SDS011;8858;52.308;20.994;2022-09-09T08:28:13;10.63;;;7.47;;
17482;SDS011;8858;52.308;20.994;2022-09-09T08:30:43;10.50;;;7.53;;
17482;SDS011;8858;52.308;20.994;2022-09-09T08:33:18;11.40;;;7.73;;
17482;SDS011;8858;52.308;20.994;2022-09-09T08:35:49;13.43;;;7.90;;
17482;SDS011;8858;52.308;20.994;2022-09-09T08:38:19;11.60;;;7.77;;
17482;SDS011;8858;52.308;20.994;2022-09-09T08:40:49;11.27;;;8.33;;
17482;SDS011;8858;52.308;20.994;2022-09-09T08:43:27;8.77;;;7.40;;
17482;SDS011;8858;52.308;20.994;2022-09-09T08:46:00;12.50;;;8.27;;
17482;SDS011;8858;52.308;20.994;2022-09-09T08:48:39;8.50;;;7.47;;
17482;SDS011;8858;52.308;20.994;2022-09-09T08:51:15;8.97;;;7.90;;
17482;SDS011;8858;52.308;20.994;2022-09-09T08:53:46;10.80;;;8.27;;
17482;SDS011;8858;52.308;20.994;2022-09-09T08:56:26;11.63;;;9.10;;
17482;SDS011;8858;52.308;20.994;2022-09-09T08:59:02;9.60;;;8.27;;
17482;SDS011;8858;52.308;20.994;2022-09-09T09:01:42;11.43;;;8.50;;
17482;SDS011;8858;52.308;20.994;2022-09-09T09:04:37;11.17;;;8.97;;
17482;SDS011;8858;52.308;20.994;2022-09-09T09:07:16;13.27;;;8.80;;
17482;SDS011;8858;52.308;20.994;2022-09-09T09:10:00;12.37;;;8.20;;
17482;SDS011;8858;52.308;20.994;2022-09-09T09:12:55;10.47;;;8.67;;
17482;SDS011;8858;52.308;20.994;2022-09-09T09:15:26;10.57;;;8.50;;
17482;SDS011;8858;52.308;20.994;2022-09-09T09:18:04;13.10;;;10.33;;
17482;SDS011;8858;52.308;20.994;2022-09-09T09:20:35;12.93;;;9.33;;
17482;SDS011;8858;52.308;20.994;2022-09-09T09:23:14;11.27;;;10.07;;
17482;SDS011;8858;52.308;20.994;2022-09-09T09:25:52;12.00;;;9.90;;
17482;SDS011;8858;52.308;20.994;2022-09-09T09:28:27;11.93;;;9.83;;
17482;SDS011;8858;52.308;20.994;2022-09-09T09:31:05;13.17;;;10.10;;
17482;SDS011;8858;52.308;20.994;2022-09-09T09:33:39;12.53;;;10.33;;
17482;SDS011;8858;52.308;20.994;2022-09-09T09:36:18;13.40;;;10.73;;
17482;SDS011;8858;52.308;20.994;2022-09-09T09:38:53;13.67;;;10.40;;
17482;SDS011;8858;52.308;20.994;2022-09-09T09:41:46;13.90;;;11.30;;
17482;SDS011;8858;52.308;20.994;2022-09-09T09:44:23;15.13;;;11.40;;
17482;SDS011;8858;52.308;20.994;2022-09-09T09:47:05;12.60;;;10.60;;
17482;SDS011;8858;52.308;20.994;2022-09-09T09:49:37;14.67;;;11.63;;
17482;SDS011;8858;52.308;20.994;2022-09-09T09:52:12;15.33;;;10.87;;
17482;SDS011;8858;52.308;20.994;2022-09-09T09:54:48;13.70;;;11.00;;
17482;SDS011;8858;52.308;20.994;2022-09-09T09:57:22;15.07;;;11.10;;
17482;SDS011;8858;52.308;20.994;2022-09-09T10:00:02;13.83;;;10.83;;
17482;SDS011;8858;52.308;20.994;2022-09-09T10:02:40;13.00;;;10.80;;
17482;SDS011;8858;52.308;20.994;2022-09-09T10:05:18;19.07;;;11.73;;
17482;SDS011;8858;52.308;20.994;2022-09-09T10:08:00;19.50;;;11.67;;
17482;SDS011;8858;52.308;20.994;2022-09-09T10:10:37;12.43;;;11.13;;
17482;SDS011;8858;52.308;20.994;2022-09-09T10:13:28;16.37;;;11.67;;
17482;SDS011;8858;52.308;20.994;2022-09-09T10:16:08;14.00;;;11.17;;
17482;SDS011;8858;52.308;20.994;2022-09-09T10:18:51;14.70;;;11.80;;
17482;SDS011;8858;52.308;20.994;2022-09-09T10:24:37;13.97;;;12.17;;
17482;SDS011;8858;52.308;20.994;2022-09-09T10:27:30;15.33;;;12.17;;
17482;SDS011;8858;52.308;20.994;2022-09-09T10:30:12;14.90;;;12.07;;
17482;SDS011;8858;52.308;20.994;2022-09-09T10:32:47;17.13;;;13.30;;
17482;SDS011;8858;52.308;20.994;2022-09-09T10:35:24;17.47;;;12.40;;
17482;SDS011;8858;52.308;20.994;2022-09-09T10:44:03;16.87;;;13.53;;
17482;SDS011;8858;52.308;20.994;2022-09-09T10:46:45;21.73;;;13.57;;
17482;SDS011;8858;52.308;20.994;2022-09-09T10:49:32;21.90;;;13.30;;
17482;SDS011;8858;52.308;20.994;2022-09-09T10:52:22;16.33;;;14.10;;
17482;SDS011;8858;52.308;20.994;2022-09-09T10:54:59;18.27;;;14.93;;
17482;SDS011;8858;52.308;20.994;2022-09-09T10:57:39;21.80;;;16.87;;
17482;SDS011;8858;52.308;20.994;2022-09-09T11:00:14;19.23;;;14.23;;
17482;SDS011;8858;52.308;20.994;2022-09-09T11:02:48;19.10;;;14.80;;
17482;SDS011;8858;52.308;20.994;2022-09-09T11:05:24;16.93;;;14.00;;
17482;SDS011;8858;52.308;20.994;2022-09-09T11:07:58;21.27;;;14.20;;
17482;SDS011;8858;52.308;20.994;2022-09-09T11:10:34;20.17;;;14.13;;
17482;SDS011;8858;52.308;20.994;2022-09-09T11:13:11;18.87;;;14.27;;
17482;SDS011;8858;52.308;20.994;2022-09-09T11:15:45;21.43;;;14.67;;
17482;SDS011;8858;52.308;20.994;2022-09-09T11:18:21;19.33;;;14.17;;
17482;SDS011;8858;52.308;20.994;2022-09-09T11:20:53;18.87;;;15.30;;
17482;SDS011;8858;52.308;20.994;2022-09-09T11:23:28;19.50;;;15.40;;
17482;SDS011;8858;52.308;20.994;2022-09-09T11:26:07;20.93;;;16.37;;
17482;SDS011;8858;52.308;20.994;2022-09-09T11:28:45;27.43;;;18.83;;
17482;SDS011;8858;52.308;20.994;2022-09-09T11:31:36;26.70;;;17.90;;
17482;SDS011;8858;52.308;20.994;2022-09-09T11:34:18;26.70;;;19.07;;
17482;SDS011;8858;52.308;20.994;2022-09-09T11:37:11;47.13;;;40.07;;
17482;SDS011;8858;52.308;20.994;2022-09-09T11:40:08;27.33;;;21.90;;
17482;SDS011;8858;52.308;20.994;2022-09-09T11:42:45;25.37;;;19.17;;
17482;SDS011;8858;52.308;20.994;2022-09-09T11:45:20;27.30;;;19.10;;
17482;SDS011;8858;52.308;20.994;2022-09-09T11:47:53;25.03;;;18.57;;
17482;SDS011;8858;52.308;20.994;2022-09-09T11:50:35;24.00;;;19.20;;
17482;SDS011;8858;52.308;20.994;2022-09-09T11:53:24;23.07;;;18.57;;
17482;SDS011;8858;52.308;20.994;2022-09-09T11:58:42;27.40;;;18.10;;
17482;SDS011;8858;52.308;20.994;2022-09-09T12:01:28;27.13;;;18.03;;
17482;SDS011;8858;52.308;20.994;2022-09-09T12:04:13;22.63;;;18.47;;
17482;SDS011;8858;52.308;20.994;2022-09-09T12:07:02;23.33;;;19.83;;
17482;SDS011;8858;52.308;20.994;2022-09-09T12:09:47;22.50;;;18.53;;
17482;SDS011;8858;52.308;20.994;2022-09-09T12:12:21;25.67;;;18.60;;
17482;SDS011;8858;52.308;20.994;2022-09-09T12:14:57;27.17;;;19.20;;
17482;SDS011;8858;52.308;20.994;2022-09-09T12:17:44;26.87;;;19.63;;
17482;SDS011;8858;52.308;20.994;2022-09-09T12:20:16;24.20;;;19.40;;
17482;SDS011;8858;52.308;20.994;2022-09-09T12:22:55;27.80;;;20.97;;
17482;SDS011;8858;52.308;20.994;2022-09-09T12:25:52;27.73;;;21.20;;
17482;SDS011;8858;52.308;20.994;2022-09-09T12:28:33;25.27;;;20.80;;
17482;SDS011;8858;52.308;20.994;2022-09-09T12:31:21;26.57;;;21.40;;
17482;SDS011;8858;52.308;20.994;2022-09-09T12:33:53;39.53;;;32.50;;
17482;SDS011;8858;52.308;20.994;2022-09-09T12:36:22;30.37;;;22.87;;
17482;SDS011;8858;52.308;20.994;2022-09-09T12:39:09;28.13;;;21.60;;
17482;SDS011;8858;52.308;20.994;2022-09-09T12:41:51;28.63;;;21.80;;
17482;SDS011;8858;52.308;20.994;2022-09-09T12:44:23;29.23;;;22.77;;
17482;SDS011;8858;52.308;20.994;2022-09-09T12:46:58;29.20;;;24.43;;
17482;SDS011;8858;52.308;20.994;2022-09-09T12:49:31;27.77;;;22.60;;
17482;SDS011;8858;52.308;20.994;2022-09-09T12:52:06;29.07;;;22.30;;
17482;SDS011;8858;52.308;20.994;2022-09-09T12:54:43;30.97;;;22.80;;
17482;SDS011;8858;52.308;20.994;2022-09-09T12:57:38;30.40;;;22.50;;
17482;SDS011;8858;52.308;20.994;2022-09-09T13:00:12;31.03;;;23.70;;
17482;SDS011;8858;52.308;20.994;2022-09-09T13:02:47;31.90;;;22.50;;
17482;SDS011;8858;52.308;20.994;2022-09-09T13:05:26;32.97;;;22.77;;
17482;SDS011;8858;52.308;20.994;2022-09-09T13:08:00;34.37;;;24.30;;
17482;SDS011;8858;52.308;20.994;2022-09-09T13:10:35;32.77;;;23.67;;
17482;SDS011;8858;52.308;20.994;2022-09-09T13:13:29;28.97;;;21.17;;
17482;SDS011;8858;52.308;20.994;2022-09-09T13:16:02;27.67;;;20.27;;
17482;SDS011;8858;52.308;20.994;2022-09-09T13:18:35;26.67;;;20.80;;
17482;SDS011;8858;52.308;20.994;2022-09-09T13:21:05;30.10;;;21.40;;
17482;SDS011;8858;52.308;20.994;2022-09-09T13:23:34;43.20;;;33.60;;
17482;SDS011;8858;52.308;20.994;2022-09-09T13:26:05;34.10;;;23.97;;
17482;SDS011;8858;52.308;20.994;2022-09-09T13:28:53;32.73;;;20.10;;
17482;SDS011;8858;52.308;20.994;2022-09-09T13:31:22;28.87;;;20.13;;
17482;SDS011;8858;52.308;20.994;2022-09-09T13:34:00;32.47;;;21.83;;
17482;SDS011;8858;52.308;20.994;2022-09-09T13:36:40;31.13;;;21.97;;
17482;SDS011;8858;52.308;20.994;2022-09-09T13:39:14;28.27;;;20.23;;
17482;SDS011;8858;52.308;20.994;2022-09-09T13:41:45;29.57;;;21.17;;
17482;SDS011;8858;52.308;20.994;2022-09-09T13:44:19;28.53;;;20.23;;
17482;SDS011;8858;52.308;20.994;2022-09-09T13:46:59;38.67;;;29.20;;
17482;SDS011;8858;52.308;20.994;2022-09-09T13:49:35;27.93;;;20.73;;
17482;SDS011;8858;52.308;20.994;2022-09-09T13:52:05;33.20;;;20.03;;
17482;SDS011;8858;52.308;20.994;2022-09-09T13:54:37;29.27;;;21.10;;
17482;SDS011;8858;52.308;20.994;2022-09-09T13:57:11;32.60;;;20.63;;
17482;SDS011;8858;52.308;20.994;2022-09-09T13:59:46;28.63;;;21.17;;
17482;SDS011;8858;52.308;20.994;2022-09-09T14:02:34;34.73;;;21.43;;
17482;SDS011;8858;52.308;20.994;2022-09-09T14:05:05;34.93;;;21.30;;
17482;SDS011;8858;52.308;20.994;2022-09-09T14:07:34;30.27;;;20.03;;
17482;SDS011;8858;52.308;20.994;2022-09-09T14:10:04;31.43;;;21.87;;
17482;SDS011;8858;52.308;20.994;2022-09-09T14:12:37;37.10;;;22.07;;
17482;SDS011;8858;52.308;20.994;2022-09-09T14:15:09;31.77;;;21.30;;
17482;SDS011;8858;52.308;20.994;2022-09-09T14:17:41;31.50;;;21.00;;
17482;SDS011;8858;52.308;20.994;2022-09-09T14:20:12;27.93;;;20.50;;
17482;SDS011;8858;52.308;20.994;2022-09-09T14:22:41;30.60;;;21.30;;
17482;SDS011;8858;52.308;20.994;2022-09-09T14:25:10;29.30;;;21.67;;
17482;SDS011;8858;52.308;20.994;2022-09-09T14:27:41;29.77;;;21.07;;
17482;SDS011;8858;52.308;20.994;2022-09-09T14:30:11;30.60;;;21.33;;
17482;SDS011;8858;52.308;20.994;2022-09-09T14:32:40;29.53;;;20.07;;
17482;SDS011;8858;52.308;20.994;2022-09-09T14:35:08;28.80;;;19.90;;
17482;SDS011;8858;52.308;20.994;2022-09-09T14:37:38;28.80;;;19.80;;
17482;SDS011;8858;52.308;20.994;2022-09-09T14:40:06;29.37;;;19.90;;
17482;SDS011;8858;52.308;20.994;2022-09-09T14:42:35;31.03;;;20.77;;
17482;SDS011;8858;52.308;20.994;2022-09-09T14:45:07;31.10;;;19.97;;
17482;SDS011;8858;52.308;20.994;2022-09-09T14:47:37;28.17;;;20.10;;
17482;SDS011;8858;52.308;20.994;2022-09-09T14:50:07;27.97;;;19.93;;
17482;SDS011;8858;52.308;20.994;2022-09-09T14:52:35;29.60;;;21.00;;
17482;SDS011;8858;52.308;20.994;2022-09-09T14:55:04;30.57;;;21.70;;
17482;SDS011;8858;52.308;20.994;2022-09-09T14:57:37;28.13;;;20.47;;
17482;SDS011;8858;52.308;20.994;2022-09-09T15:00:07;30.77;;;19.73;;
17482;SDS011;8858;52.308;20.994;2022-09-09T15:02:46;33.60;;;20.13;;
17482;SDS011;8858;52.308;20.994;2022-09-09T15:05:15;28.67;;;19.67;;
17482;SDS011;8858;52.308;20.994;2022-09-09T15:07:45;30.30;;;19.63;;
17482;SDS011;8858;52.308;20.994;2022-09-09T15:10:14;31.47;;;19.63;;
17482;SDS011;8858;52.308;20.994;2022-09-09T15:12:47;29.27;;;20.30;;
17482;SDS011;8858;52.308;20.994;2022-09-09T15:15:15;29.43;;;20.47;;
17482;SDS011;8858;52.308;20.994;2022-09-09T15:17:43;28.60;;;20.33;;
17482;SDS011;8858;52.308;20.994;2022-09-09T15:20:37;28.30;;;19.77;;
17482;SDS011;8858;52.308;20.994;2022-09-09T15:23:06;29.33;;;19.37;;
17482;SDS011;8858;52.308;20.994;2022-09-09T15:25:35;26.37;;;19.67;;
17482;SDS011;8858;52.308;20.994;2022-09-09T15:28:04;28.73;;;19.83;;
17482;SDS011;8858;52.308;20.994;2022-09-09T15:30:34;31.50;;;20.07;;
17482;SDS011;8858;52.308;20.994;2022-09-09T15:33:07;27.80;;;19.73;;